sensor_id;sensor_type;location;lat;lon;timestamp;P1;durP1;ratioP1;P2;durP2;ratioP2
8397;SDS011;4236;54.504;9.588;2022-10-16T00:01:16;39.07;;;36.57;;
8397;SDS011;4236;54.504;9.588;2022-10-16T00:03:45;38.93;;;36.60;;
8397;SDS011;4236;54.504;9.588;2022-10-16T00:06:14;39.80;;;37.13;;
8397;SDS011;4236;54.504;9.588;2022-10-16T00:08:42;39.57;;;36.40;;
8397;SDS011;4236;54.504;9.588;2022-10-16T00:11:11;36.60;;;34.27;;
8397;SDS011;4236;54.504;9.588;2022-10-16T00:13:42;37.40;;;34.83;;
8397;SDS011;4236;54.504;9.588;2022-10-16T00:16:12;40.20;;;37.13;;
8397;SDS011;4236;54.504;9.588;2022-10-16T00:18:40;38.23;;;35.70;;
8397;SDS011;4236;54.504;9.588;2022-10-16T00:21:09;38.10;;;35.17;;
8397;SDS011;4236;54.504;9.588;2022-10-16T00:23:38;36.93;;;33.97;;
8397;SDS011;4236;54.504;9.588;2022-10-16T00:26:07;38.20;;;35.77;;
8397;SDS011;4236;54.504;9.588;2022-10-16T00:28:37;36.97;;;34.27;;
8397;SDS011;4236;54.504;9.588;2022-10-16T00:31:05;36.17;;;34.10;;
8397;SDS011;4236;54.504;9.588;2022-10-16T00:33:35;35.30;;;33.10;;
8397;SDS011;4236;54.504;9.588;2022-10-16T00:36:05;35.40;;;33.30;;
8397;SDS011;4236;54.504;9.588;2022-10-16T00:38:33;37.77;;;35.13;;
8397;SDS011;4236;54.504;9.588;2022-10-16T00:41:01;37.87;;;35.00;;
8397;SDS011;4236;54.504;9.588;2022-10-16T00:43:32;37.27;;;34.20;;
8397;SDS011;4236;54.504;9.588;2022-10-16T00:46:03;35.83;;;33.03;;
8397;SDS011;4236;54.504;9.588;2022-10-16T00:48:36;36.57;;;33.97;;
8397;SDS011;4236;54.504;9.588;2022-10-16T00:51:04;34.83;;;32.50;;
8397;SDS011;4236;54.504;9.588;2022-10-16T00:53:33;36.57;;;34.00;;
8397;SDS011;4236;54.504;9.588;2022-10-16T00:56:01;36.20;;;32.90;;
8397;SDS011;4236;54.504;9.588;2022-10-16T00:58:29;35.43;;;33.30;;
8397;SDS011;4236;54.504;9.588;2022-10-16T01:00:57;34.60;;;32.30;;
8397;SDS011;4236;54.504;9.588;2022-10-16T01:03:26;35.53;;;33.13;;
8397;SDS011;4236;54.504;9.588;2022-10-16T01:06:02;36.60;;;33.57;;
8397;SDS011;4236;54.504;9.588;2022-10-16T01:08:49;35.50;;;33.20;;
8397;SDS011;4236;54.504;9.588;2022-10-16T01:11:45;36.30;;;33.43;;
8397;SDS011;4236;54.504;9.588;2022-10-16T01:14:22;35.60;;;33.17;;
8397;SDS011;4236;54.504;9.588;2022-10-16T01:16:55;34.77;;;32.33;;
8397;SDS011;4236;54.504;9.588;2022-10-16T01:19:32;35.33;;;32.60;;
8397;SDS011;4236;54.504;9.588;2022-10-16T01:22:10;34.83;;;32.77;;
8397;SDS011;4236;54.504;9.588;2022-10-16T01:24:39;36.97;;;34.47;;
8397;SDS011;4236;54.504;9.588;2022-10-16T01:27:12;34.97;;;32.70;;
8397;SDS011;4236;54.504;9.588;2022-10-16T01:29:44;35.70;;;33.27;;
8397;SDS011;4236;54.504;9.588;2022-10-16T01:32:20;34.40;;;32.40;;
8397;SDS011;4236;54.504;9.588;2022-10-16T01:34:52;34.83;;;32.43;;
8397;SDS011;4236;54.504;9.588;2022-10-16T01:37:27;34.93;;;32.27;;
8397;SDS011;4236;54.504;9.588;2022-10-16T01:40:00;34.27;;;31.83;;
8397;SDS011;4236;54.504;9.588;2022-10-16T01:42:35;33.80;;;31.60;;
8397;SDS011;4236;54.504;9.588;2022-10-16T01:45:06;37.87;;;34.30;;
8397;SDS011;4236;54.504;9.588;2022-10-16T01:47:34;34.50;;;32.50;;
8397;SDS011;4236;54.504;9.588;2022-10-16T01:50:03;34.73;;;32.43;;
8397;SDS011;4236;54.504;9.588;2022-10-16T01:52:33;35.47;;;33.10;;
8397;SDS011;4236;54.504;9.588;2022-10-16T01:55:03;34.93;;;32.60;;
8397;SDS011;4236;54.504;9.588;2022-10-16T01:57:35;36.73;;;34.23;;
8397;SDS011;4236;54.504;9.588;2022-10-16T02:00:07;37.00;;;34.70;;
8397;SDS011;4236;54.504;9.588;2022-10-16T02:02:38;36.80;;;34.30;;
8397;SDS011;4236;54.504;9.588;2022-10-16T02:05:10;36.60;;;34.10;;
8397;SDS011;4236;54.504;9.588;2022-10-16T02:07:43;37.00;;;34.73;;
8397;SDS011;4236;54.504;9.588;2022-10-16T02:10:11;36.53;;;34.20;;
8397;SDS011;4236;54.504;9.588;2022-10-16T02:12:40;37.23;;;34.07;;
8397;SDS011;4236;54.504;9.588;2022-10-16T02:15:11;36.73;;;34.53;;
8397;SDS011;4236;54.504;9.588;2022-10-16T02:17:39;38.53;;;35.83;;
8397;SDS011;4236;54.504;9.588;2022-10-16T02:20:07;37.63;;;35.30;;
8397;SDS011;4236;54.504;9.588;2022-10-16T02:22:36;38.20;;;35.50;;
8397;SDS011;4236;54.504;9.588;2022-10-16T02:25:07;38.53;;;35.83;;
8397;SDS011;4236;54.504;9.588;2022-10-16T02:27:40;38.83;;;36.17;;
8397;SDS011;4236;54.504;9.588;2022-10-16T02:30:13;38.10;;;35.40;;
8397;SDS011;4236;54.504;9.588;2022-10-16T02:32:46;37.03;;;34.63;;
8397;SDS011;4236;54.504;9.588;2022-10-16T02:35:16;38.60;;;35.60;;
8397;SDS011;4236;54.504;9.588;2022-10-16T02:37:45;37.03;;;34.70;;
8397;SDS011;4236;54.504;9.588;2022-10-16T02:40:14;37.00;;;34.50;;
8397;SDS011;4236;54.504;9.588;2022-10-16T02:42:49;37.80;;;35.40;;
8397;SDS011;4236;54.504;9.588;2022-10-16T02:45:18;36.17;;;33.77;;
8397;SDS011;4236;54.504;9.588;2022-10-16T02:47:46;36.43;;;33.90;;
8397;SDS011;4236;54.504;9.588;2022-10-16T02:50:13;39.13;;;36.40;;
8397;SDS011;4236;54.504;9.588;2022-10-16T02:52:41;37.20;;;34.47;;
8397;SDS011;4236;54.504;9.588;2022-10-16T02:55:09;36.23;;;33.93;;
8397;SDS011;4236;54.504;9.588;2022-10-16T02:57:36;39.33;;;35.20;;
8397;SDS011;4236;54.504;9.588;2022-10-16T03:00:08;37.47;;;34.93;;
8397;SDS011;4236;54.504;9.588;2022-10-16T03:02:38;36.27;;;34.23;;
8397;SDS011;4236;54.504;9.588;2022-10-16T03:05:06;37.17;;;34.70;;
8397;SDS011;4236;54.504;9.588;2022-10-16T03:07:35;36.47;;;34.10;;
8397;SDS011;4236;54.504;9.588;2022-10-16T03:10:03;36.70;;;34.30;;
8397;SDS011;4236;54.504;9.588;2022-10-16T03:12:31;37.33;;;34.80;;
8397;SDS011;4236;54.504;9.588;2022-10-16T03:14:58;38.03;;;35.30;;
8397;SDS011;4236;54.504;9.588;2022-10-16T03:17:28;36.90;;;34.50;;
8397;SDS011;4236;54.504;9.588;2022-10-16T03:19:55;37.37;;;34.97;;
8397;SDS011;4236;54.504;9.588;2022-10-16T03:22:23;37.40;;;34.63;;
8397;SDS011;4236;54.504;9.588;2022-10-16T03:24:50;35.67;;;33.30;;
8397;SDS011;4236;54.504;9.588;2022-10-16T03:27:18;36.87;;;34.30;;
8397;SDS011;4236;54.504;9.588;2022-10-16T03:29:46;38.07;;;34.90;;
8397;SDS011;4236;54.504;9.588;2022-10-16T03:32:13;36.60;;;34.13;;
8397;SDS011;4236;54.504;9.588;2022-10-16T03:34:42;36.87;;;34.47;;
8397;SDS011;4236;54.504;9.588;2022-10-16T03:37:10;35.90;;;33.87;;
8397;SDS011;4236;54.504;9.588;2022-10-16T03:39:37;37.87;;;35.17;;
8397;SDS011;4236;54.504;9.588;2022-10-16T03:42:05;38.77;;;36.00;;
8397;SDS011;4236;54.504;9.588;2022-10-16T03:44:33;38.27;;;35.70;;
8397;SDS011;4236;54.504;9.588;2022-10-16T03:47:00;36.60;;;34.07;;
8397;SDS011;4236;54.504;9.588;2022-10-16T03:49:28;38.13;;;35.20;;
8397;SDS011;4236;54.504;9.588;2022-10-16T03:51:57;37.87;;;35.20;;
8397;SDS011;4236;54.504;9.588;2022-10-16T03:54:24;39.33;;;36.53;;
8397;SDS011;4236;54.504;9.588;2022-10-16T03:56:52;37.77;;;35.10;;
8397;SDS011;4236;54.504;9.588;2022-10-16T03:59:19;39.63;;;36.63;;
8397;SDS011;4236;54.504;9.588;2022-10-16T04:01:47;40.30;;;37.63;;
8397;SDS011;4236;54.504;9.588;2022-10-16T04:04:14;39.57;;;37.20;;
8397;SDS011;4236;54.504;9.588;2022-10-16T04:06:42;40.20;;;36.93;;
8397;SDS011;4236;54.504;9.588;2022-10-16T04:09:11;38.73;;;36.33;;
8397;SDS011;4236;54.504;9.588;2022-10-16T04:11:39;39.63;;;36.83;;
8397;SDS011;4236;54.504;9.588;2022-10-16T04:14:06;42.17;;;39.60;;
8397;SDS011;4236;54.504;9.588;2022-10-16T04:16:34;41.13;;;38.40;;
8397;SDS011;4236;54.504;9.588;2022-10-16T04:19:02;43.43;;;40.07;;
8397;SDS011;4236;54.504;9.588;2022-10-16T04:21:29;43.50;;;40.60;;
8397;SDS011;4236;54.504;9.588;2022-10-16T04:23:57;43.73;;;40.70;;
8397;SDS011;4236;54.504;9.588;2022-10-16T04:26:26;42.47;;;39.87;;
8397;SDS011;4236;54.504;9.588;2022-10-16T04:28:53;41.50;;;38.93;;
8397;SDS011;4236;54.504;9.588;2022-10-16T04:31:21;42.40;;;39.80;;
8397;SDS011;4236;54.504;9.588;2022-10-16T04:33:49;41.10;;;38.60;;
8397;SDS011;4236;54.504;9.588;2022-10-16T04:36:16;41.13;;;38.63;;
8397;SDS011;4236;54.504;9.588;2022-10-16T04:38:44;41.73;;;38.20;;
8397;SDS011;4236;54.504;9.588;2022-10-16T04:41:12;40.60;;;38.20;;
8397;SDS011;4236;54.504;9.588;2022-10-16T04:43:41;40.57;;;38.17;;
8397;SDS011;4236;54.504;9.588;2022-10-16T04:46:08;41.13;;;38.00;;
8397;SDS011;4236;54.504;9.588;2022-10-16T04:48:36;40.60;;;37.67;;
8397;SDS011;4236;54.504;9.588;2022-10-16T04:51:04;40.23;;;37.40;;
8397;SDS011;4236;54.504;9.588;2022-10-16T04:53:31;38.20;;;36.10;;
8397;SDS011;4236;54.504;9.588;2022-10-16T04:55:59;38.50;;;36.30;;
8397;SDS011;4236;54.504;9.588;2022-10-16T04:58:27;39.60;;;37.20;;
8397;SDS011;4236;54.504;9.588;2022-10-16T05:00:56;38.57;;;36.20;;
8397;SDS011;4236;54.504;9.588;2022-10-16T05:03:23;38.07;;;35.83;;
8397;SDS011;4236;54.504;9.588;2022-10-16T05:05:51;40.73;;;38.00;;
8397;SDS011;4236;54.504;9.588;2022-10-16T05:08:18;39.60;;;36.77;;
8397;SDS011;4236;54.504;9.588;2022-10-16T05:10:46;39.63;;;37.43;;
8397;SDS011;4236;54.504;9.588;2022-10-16T05:13:14;38.70;;;36.60;;
8397;SDS011;4236;54.504;9.588;2022-10-16T05:15:41;41.87;;;38.93;;
8397;SDS011;4236;54.504;9.588;2022-10-16T05:18:10;40.30;;;38.20;;
8397;SDS011;4236;54.504;9.588;2022-10-16T05:20:38;40.40;;;38.10;;
8397;SDS011;4236;54.504;9.588;2022-10-16T05:23:05;39.83;;;37.20;;
8397;SDS011;4236;54.504;9.588;2022-10-16T05:25:33;41.20;;;38.90;;
8397;SDS011;4236;54.504;9.588;2022-10-16T05:28:01;41.00;;;38.30;;
8397;SDS011;4236;54.504;9.588;2022-10-16T05:30:28;40.27;;;37.70;;
8397;SDS011;4236;54.504;9.588;2022-10-16T05:32:56;40.30;;;37.77;;
8397;SDS011;4236;54.504;9.588;2022-10-16T05:35:25;41.00;;;38.10;;
8397;SDS011;4236;54.504;9.588;2022-10-16T05:37:52;39.13;;;36.60;;
8397;SDS011;4236;54.504;9.588;2022-10-16T05:40:20;38.57;;;35.97;;
8397;SDS011;4236;54.504;9.588;2022-10-16T05:42:48;38.30;;;36.00;;
8397;SDS011;4236;54.504;9.588;2022-10-16T05:45:15;38.20;;;35.87;;
8397;SDS011;4236;54.504;9.588;2022-10-16T05:47:43;37.37;;;35.30;;
8397;SDS011;4236;54.504;9.588;2022-10-16T05:50:11;37.80;;;35.60;;
8397;SDS011;4236;54.504;9.588;2022-10-16T05:52:39;36.40;;;34.10;;
8397;SDS011;4236;54.504;9.588;2022-10-16T05:55:07;37.17;;;34.67;;
8397;SDS011;4236;54.504;9.588;2022-10-16T05:57:35;36.87;;;34.80;;
8397;SDS011;4236;54.504;9.588;2022-10-16T06:00:03;37.77;;;35.67;;
8397;SDS011;4236;54.504;9.588;2022-10-16T06:02:31;37.17;;;35.00;;
8397;SDS011;4236;54.504;9.588;2022-10-16T06:04:59;36.90;;;34.80;;
8397;SDS011;4236;54.504;9.588;2022-10-16T06:07:26;36.77;;;34.57;;
8397;SDS011;4236;54.504;9.588;2022-10-16T06:09:56;35.53;;;33.50;;
8397;SDS011;4236;54.504;9.588;2022-10-16T06:12:23;37.23;;;35.13;;
8397;SDS011;4236;54.504;9.588;2022-10-16T06:14:51;35.57;;;33.57;;
8397;SDS011;4236;54.504;9.588;2022-10-16T06:17:18;34.30;;;32.50;;
8397;SDS011;4236;54.504;9.588;2022-10-16T06:19:46;36.00;;;33.90;;
8397;SDS011;4236;54.504;9.588;2022-10-16T06:22:13;35.80;;;33.87;;
8397;SDS011;4236;54.504;9.588;2022-10-16T06:24:42;35.60;;;33.33;;
8397;SDS011;4236;54.504;9.588;2022-10-16T06:27:10;35.53;;;33.23;;
8397;SDS011;4236;54.504;9.588;2022-10-16T06:29:38;36.13;;;33.87;;
8397;SDS011;4236;54.504;9.588;2022-10-16T06:32:06;35.03;;;33.03;;
8397;SDS011;4236;54.504;9.588;2022-10-16T06:34:34;34.87;;;32.87;;
8397;SDS011;4236;54.504;9.588;2022-10-16T06:37:02;34.40;;;32.23;;
8397;SDS011;4236;54.504;9.588;2022-10-16T06:39:30;35.70;;;33.60;;
8397;SDS011;4236;54.504;9.588;2022-10-16T06:41:58;35.53;;;33.53;;
8397;SDS011;4236;54.504;9.588;2022-10-16T06:44:32;35.50;;;33.40;;
8397;SDS011;4236;54.504;9.588;2022-10-16T06:46:59;36.70;;;34.60;;
8397;SDS011;4236;54.504;9.588;2022-10-16T06:49:27;35.63;;;33.33;;
8397;SDS011;4236;54.504;9.588;2022-10-16T06:51:54;36.00;;;33.90;;
8397;SDS011;4236;54.504;9.588;2022-10-16T06:54:22;35.17;;;33.17;;
8397;SDS011;4236;54.504;9.588;2022-10-16T06:56:50;34.00;;;32.10;;
8397;SDS011;4236;54.504;9.588;2022-10-16T06:59:20;34.70;;;32.50;;
8397;SDS011;4236;54.504;9.588;2022-10-16T07:01:49;34.33;;;32.17;;
8397;SDS011;4236;54.504;9.588;2022-10-16T07:04:16;33.80;;;31.80;;
8397;SDS011;4236;54.504;9.588;2022-10-16T07:06:44;34.57;;;32.50;;
8397;SDS011;4236;54.504;9.588;2022-10-16T07:09:12;33.23;;;31.50;;
8397;SDS011;4236;54.504;9.588;2022-10-16T07:11:39;34.03;;;32.23;;
8397;SDS011;4236;54.504;9.588;2022-10-16T07:14:11;33.83;;;31.90;;
8397;SDS011;4236;54.504;9.588;2022-10-16T07:16:43;34.60;;;32.47;;
8397;SDS011;4236;54.504;9.588;2022-10-16T07:19:12;34.23;;;32.43;;
8397;SDS011;4236;54.504;9.588;2022-10-16T07:21:41;34.13;;;32.30;;
8397;SDS011;4236;54.504;9.588;2022-10-16T07:24:11;35.07;;;33.17;;
8397;SDS011;4236;54.504;9.588;2022-10-16T07:26:40;34.83;;;32.90;;
8397;SDS011;4236;54.504;9.588;2022-10-16T07:29:12;35.33;;;32.97;;
8397;SDS011;4236;54.504;9.588;2022-10-16T07:31:41;35.07;;;32.77;;
8397;SDS011;4236;54.504;9.588;2022-10-16T07:34:09;34.53;;;32.40;;
8397;SDS011;4236;54.504;9.588;2022-10-16T07:36:38;34.90;;;32.83;;
8397;SDS011;4236;54.504;9.588;2022-10-16T07:39:09;35.20;;;33.00;;
8397;SDS011;4236;54.504;9.588;2022-10-16T07:41:36;34.37;;;32.57;;
8397;SDS011;4236;54.504;9.588;2022-10-16T07:44:04;34.90;;;32.80;;
8397;SDS011;4236;54.504;9.588;2022-10-16T07:46:32;34.80;;;32.90;;
8397;SDS011;4236;54.504;9.588;2022-10-16T07:49:01;35.23;;;33.10;;
8397;SDS011;4236;54.504;9.588;2022-10-16T07:51:29;33.40;;;31.80;;
8397;SDS011;4236;54.504;9.588;2022-10-16T07:53:58;33.10;;;31.40;;
8397;SDS011;4236;54.504;9.588;2022-10-16T07:56:26;34.10;;;32.20;;
8397;SDS011;4236;54.504;9.588;2022-10-16T07:58:53;35.00;;;33.00;;
8397;SDS011;4236;54.504;9.588;2022-10-16T08:01:22;32.33;;;30.70;;
8397;SDS011;4236;54.504;9.588;2022-10-16T08:03:51;34.77;;;32.40;;
8397;SDS011;4236;54.504;9.588;2022-10-16T08:06:20;32.63;;;30.87;;
8397;SDS011;4236;54.504;9.588;2022-10-16T08:08:53;33.03;;;31.30;;
8397;SDS011;4236;54.504;9.588;2022-10-16T08:11:22;32.70;;;30.90;;
8397;SDS011;4236;54.504;9.588;2022-10-16T08:13:50;32.80;;;31.10;;
8397;SDS011;4236;54.504;9.588;2022-10-16T08:16:18;32.30;;;30.70;;
8397;SDS011;4236;54.504;9.588;2022-10-16T08:18:45;32.17;;;30.47;;
8397;SDS011;4236;54.504;9.588;2022-10-16T08:21:14;34.00;;;32.03;;
8397;SDS011;4236;54.504;9.588;2022-10-16T08:23:46;32.93;;;30.80;;
8397;SDS011;4236;54.504;9.588;2022-10-16T08:26:24;32.80;;;31.00;;
8397;SDS011;4236;54.504;9.588;2022-10-16T08:28:53;33.03;;;31.17;;
8397;SDS011;4236;54.504;9.588;2022-10-16T08:31:21;32.90;;;31.10;;
8397;SDS011;4236;54.504;9.588;2022-10-16T08:33:49;31.80;;;30.20;;
8397;SDS011;4236;54.504;9.588;2022-10-16T08:36:18;33.40;;;31.80;;
8397;SDS011;4236;54.504;9.588;2022-10-16T08:38:47;34.57;;;32.63;;
8397;SDS011;4236;54.504;9.588;2022-10-16T08:41:30;34.20;;;32.30;;
8397;SDS011;4236;54.504;9.588;2022-10-16T08:47:24;33.67;;;31.80;;
8397;SDS011;4236;54.504;9.588;2022-10-16T08:50:07;33.10;;;31.40;;
8397;SDS011;4236;54.504;9.588;2022-10-16T08:52:38;31.73;;;30.13;;
8397;SDS011;4236;54.504;9.588;2022-10-16T08:55:09;32.20;;;30.27;;
8397;SDS011;4236;54.504;9.588;2022-10-16T08:57:57;33.80;;;31.67;;
8397;SDS011;4236;54.504;9.588;2022-10-16T09:00:26;33.90;;;31.80;;
8397;SDS011;4236;54.504;9.588;2022-10-16T09:02:57;32.20;;;30.60;;
8397;SDS011;4236;54.504;9.588;2022-10-16T09:05:39;31.93;;;30.43;;
8397;SDS011;4236;54.504;9.588;2022-10-16T09:08:17;32.20;;;30.40;;
8397;SDS011;4236;54.504;9.588;2022-10-16T09:10:52;32.23;;;30.73;;
8397;SDS011;4236;54.504;9.588;2022-10-16T09:13:28;31.13;;;29.60;;
8397;SDS011;4236;54.504;9.588;2022-10-16T09:16:01;33.40;;;31.00;;
8397;SDS011;4236;54.504;9.588;2022-10-16T09:18:43;33.33;;;31.27;;
8397;SDS011;4236;54.504;9.588;2022-10-16T09:21:19;32.43;;;30.60;;
8397;SDS011;4236;54.504;9.588;2022-10-16T09:23:50;33.27;;;31.17;;
8397;SDS011;4236;54.504;9.588;2022-10-16T09:26:18;31.73;;;29.93;;
8397;SDS011;4236;54.504;9.588;2022-10-16T09:28:51;32.87;;;30.27;;
8397;SDS011;4236;54.504;9.588;2022-10-16T09:31:20;31.47;;;29.77;;
8397;SDS011;4236;54.504;9.588;2022-10-16T09:33:50;32.47;;;30.17;;
8397;SDS011;4236;54.504;9.588;2022-10-16T09:36:20;31.83;;;30.00;;
8397;SDS011;4236;54.504;9.588;2022-10-16T09:39:00;31.10;;;29.60;;
8397;SDS011;4236;54.504;9.588;2022-10-16T09:41:30;31.17;;;29.10;;
8397;SDS011;4236;54.504;9.588;2022-10-16T09:43:59;29.70;;;28.13;;
8397;SDS011;4236;54.504;9.588;2022-10-16T09:46:29;30.47;;;28.57;;
8397;SDS011;4236;54.504;9.588;2022-10-16T09:48:58;29.90;;;28.20;;
8397;SDS011;4236;54.504;9.588;2022-10-16T09:51:27;30.93;;;28.70;;
8397;SDS011;4236;54.504;9.588;2022-10-16T09:53:57;29.53;;;27.90;;
8397;SDS011;4236;54.504;9.588;2022-10-16T09:56:27;28.50;;;26.87;;
8397;SDS011;4236;54.504;9.588;2022-10-16T09:58:56;27.80;;;26.20;;
8397;SDS011;4236;54.504;9.588;2022-10-16T10:01:28;27.70;;;26.20;;
8397;SDS011;4236;54.504;9.588;2022-10-16T10:03:58;28.87;;;27.10;;
8397;SDS011;4236;54.504;9.588;2022-10-16T10:06:29;28.33;;;26.70;;
8397;SDS011;4236;54.504;9.588;2022-10-16T10:09:02;28.73;;;27.20;;
8397;SDS011;4236;54.504;9.588;2022-10-16T10:11:40;28.20;;;26.80;;
8397;SDS011;4236;54.504;9.588;2022-10-16T10:14:13;28.37;;;26.77;;
8397;SDS011;4236;54.504;9.588;2022-10-16T10:16:46;29.10;;;27.20;;
8397;SDS011;4236;54.504;9.588;2022-10-16T10:19:15;27.53;;;26.00;;
8397;SDS011;4236;54.504;9.588;2022-10-16T10:21:44;26.67;;;25.43;;
8397;SDS011;4236;54.504;9.588;2022-10-16T10:24:12;27.63;;;26.00;;
8397;SDS011;4236;54.504;9.588;2022-10-16T10:26:41;26.73;;;25.43;;
8397;SDS011;4236;54.504;9.588;2022-10-16T10:29:21;26.10;;;24.53;;
8397;SDS011;4236;54.504;9.588;2022-10-16T10:31:58;27.37;;;25.50;;
8397;SDS011;4236;54.504;9.588;2022-10-16T10:34:45;26.13;;;24.03;;
8397;SDS011;4236;54.504;9.588;2022-10-16T10:37:28;24.50;;;23.27;;
8397;SDS011;4236;54.504;9.588;2022-10-16T10:40:11;27.07;;;25.27;;
8397;SDS011;4236;54.504;9.588;2022-10-16T10:43:03;24.63;;;23.20;;
8397;SDS011;4236;54.504;9.588;2022-10-16T10:45:38;23.27;;;21.90;;
8397;SDS011;4236;54.504;9.588;2022-10-16T10:48:19;24.27;;;22.67;;
8397;SDS011;4236;54.504;9.588;2022-10-16T10:50:57;22.50;;;21.20;;
8397;SDS011;4236;54.504;9.588;2022-10-16T10:53:35;23.37;;;22.10;;
8397;SDS011;4236;54.504;9.588;2022-10-16T10:56:15;21.67;;;20.67;;
8397;SDS011;4236;54.504;9.588;2022-10-16T10:59:06;21.33;;;20.10;;
8397;SDS011;4236;54.504;9.588;2022-10-16T11:01:48;22.00;;;20.80;;
8397;SDS011;4236;54.504;9.588;2022-10-16T11:04:30;20.93;;;19.60;;
8397;SDS011;4236;54.504;9.588;2022-10-16T11:07:09;20.07;;;19.07;;
8397;SDS011;4236;54.504;9.588;2022-10-16T11:09:43;19.13;;;18.23;;
8397;SDS011;4236;54.504;9.588;2022-10-16T11:12:15;18.80;;;17.53;;
8397;SDS011;4236;54.504;9.588;2022-10-16T11:14:46;19.03;;;18.10;;
8397;SDS011;4236;54.504;9.588;2022-10-16T11:17:22;17.63;;;16.50;;
8397;SDS011;4236;54.504;9.588;2022-10-16T11:19:58;18.00;;;16.90;;
8397;SDS011;4236;54.504;9.588;2022-10-16T11:22:30;18.47;;;17.17;;
8397;SDS011;4236;54.504;9.588;2022-10-16T11:25:02;17.63;;;16.60;;
8397;SDS011;4236;54.504;9.588;2022-10-16T11:27:40;16.30;;;15.07;;
8397;SDS011;4236;54.504;9.588;2022-10-16T11:30:14;15.73;;;14.90;;
8397;SDS011;4236;54.504;9.588;2022-10-16T11:33:00;15.07;;;14.23;;
8397;SDS011;4236;54.504;9.588;2022-10-16T11:35:41;15.13;;;14.23;;
8397;SDS011;4236;54.504;9.588;2022-10-16T11:38:15;15.70;;;14.70;;
8397;SDS011;4236;54.504;9.588;2022-10-16T11:40:53;14.77;;;13.57;;
8397;SDS011;4236;54.504;9.588;2022-10-16T11:43:26;16.60;;;15.20;;
8397;SDS011;4236;54.504;9.588;2022-10-16T11:45:57;15.73;;;14.53;;
8397;SDS011;4236;54.504;9.588;2022-10-16T11:48:35;14.70;;;13.63;;
8397;SDS011;4236;54.504;9.588;2022-10-16T11:51:11;15.03;;;13.73;;
8397;SDS011;4236;54.504;9.588;2022-10-16T11:53:45;18.23;;;13.87;;
8397;SDS011;4236;54.504;9.588;2022-10-16T11:56:19;14.53;;;12.90;;
8397;SDS011;4236;54.504;9.588;2022-10-16T11:58:51;14.83;;;13.37;;
8397;SDS011;4236;54.504;9.588;2022-10-16T12:01:26;13.60;;;12.50;;
8397;SDS011;4236;54.504;9.588;2022-10-16T12:04:12;13.97;;;12.77;;
8397;SDS011;4236;54.504;9.588;2022-10-16T12:06:48;12.83;;;11.57;;
8397;SDS011;4236;54.504;9.588;2022-10-16T12:09:22;12.87;;;11.40;;
8397;SDS011;4236;54.504;9.588;2022-10-16T12:11:53;11.87;;;10.77;;
8397;SDS011;4236;54.504;9.588;2022-10-16T12:14:22;12.57;;;11.37;;
8397;SDS011;4236;54.504;9.588;2022-10-16T12:17:23;12.77;;;11.47;;
8397;SDS011;4236;54.504;9.588;2022-10-16T12:19:59;15.83;;;11.57;;
8397;SDS011;4236;54.504;9.588;2022-10-16T12:22:30;11.73;;;10.60;;
8397;SDS011;4236;54.504;9.588;2022-10-16T12:25:04;11.93;;;10.80;;
8397;SDS011;4236;54.504;9.588;2022-10-16T12:27:32;14.90;;;11.90;;
8397;SDS011;4236;54.504;9.588;2022-10-16T12:30:02;11.80;;;10.83;;
8397;SDS011;4236;54.504;9.588;2022-10-16T12:32:32;11.50;;;10.40;;
8397;SDS011;4236;54.504;9.588;2022-10-16T12:35:18;11.60;;;10.50;;
8397;SDS011;4236;54.504;9.588;2022-10-16T12:37:49;12.00;;;10.77;;
8397;SDS011;4236;54.504;9.588;2022-10-16T12:40:23;18.83;;;10.90;;
8397;SDS011;4236;54.504;9.588;2022-10-16T12:42:55;12.73;;;11.00;;
8397;SDS011;4236;54.504;9.588;2022-10-16T12:45:24;11.77;;;10.50;;
8397;SDS011;4236;54.504;9.588;2022-10-16T12:47:55;11.37;;;10.30;;
8397;SDS011;4236;54.504;9.588;2022-10-16T12:50:25;13.70;;;11.30;;
8397;SDS011;4236;54.504;9.588;2022-10-16T12:52:58;11.53;;;10.63;;
8397;SDS011;4236;54.504;9.588;2022-10-16T12:55:26;11.70;;;10.33;;
8397;SDS011;4236;54.504;9.588;2022-10-16T12:58:02;12.20;;;11.07;;
8397;SDS011;4236;54.504;9.588;2022-10-16T13:00:43;13.00;;;10.50;;
8397;SDS011;4236;54.504;9.588;2022-10-16T13:06:15;14.13;;;10.63;;
8397;SDS011;4236;54.504;9.588;2022-10-16T13:09:00;13.60;;;10.67;;
8397;SDS011;4236;54.504;9.588;2022-10-16T13:11:44;12.10;;;10.27;;
8397;SDS011;4236;54.504;9.588;2022-10-16T13:14:30;13.20;;;9.90;;
8397;SDS011;4236;54.504;9.588;2022-10-16T13:17:16;16.37;;;11.80;;
8397;SDS011;4236;54.504;9.588;2022-10-16T13:19:52;21.33;;;11.47;;
8397;SDS011;4236;54.504;9.588;2022-10-16T13:22:32;12.40;;;11.20;;
8397;SDS011;4236;54.504;9.588;2022-10-16T13:25:14;14.23;;;10.93;;
8397;SDS011;4236;54.504;9.588;2022-10-16T13:27:52;12.73;;;11.33;;
8397;SDS011;4236;54.504;9.588;2022-10-16T13:30:23;13.90;;;10.93;;
8397;SDS011;4236;54.504;9.588;2022-10-16T13:32:57;14.47;;;10.50;;
8397;SDS011;4236;54.504;9.588;2022-10-16T13:35:28;20.20;;;11.57;;
8397;SDS011;4236;54.504;9.588;2022-10-16T13:38:05;16.63;;;11.37;;
8397;SDS011;4236;54.504;9.588;2022-10-16T13:40:48;14.30;;;10.37;;
8397;SDS011;4236;54.504;9.588;2022-10-16T13:43:17;14.50;;;10.30;;
8397;SDS011;4236;54.504;9.588;2022-10-16T13:45:56;12.93;;;11.13;;
8397;SDS011;4236;54.504;9.588;2022-10-16T13:48:26;25.03;;;11.40;;
8397;SDS011;4236;54.504;9.588;2022-10-16T13:51:04;14.30;;;10.00;;
8397;SDS011;4236;54.504;9.588;2022-10-16T13:53:34;14.67;;;10.40;;
8397;SDS011;4236;54.504;9.588;2022-10-16T13:56:05;14.63;;;10.43;;
8397;SDS011;4236;54.504;9.588;2022-10-16T13:58:34;11.50;;;10.10;;
8397;SDS011;4236;54.504;9.588;2022-10-16T14:01:05;14.97;;;10.60;;
8397;SDS011;4236;54.504;9.588;2022-10-16T14:03:42;14.93;;;11.10;;
8397;SDS011;4236;54.504;9.588;2022-10-16T14:06:12;10.53;;;9.60;;
8397;SDS011;4236;54.504;9.588;2022-10-16T14:08:45;11.67;;;9.63;;
8397;SDS011;4236;54.504;9.588;2022-10-16T14:11:22;12.40;;;9.87;;
8397;SDS011;4236;54.504;9.588;2022-10-16T14:13:51;11.17;;;9.40;;
8397;SDS011;4236;54.504;9.588;2022-10-16T14:16:20;13.00;;;10.20;;
8397;SDS011;4236;54.504;9.588;2022-10-16T14:18:53;14.70;;;10.63;;
8397;SDS011;4236;54.504;9.588;2022-10-16T14:21:24;13.13;;;9.90;;
8397;SDS011;4236;54.504;9.588;2022-10-16T14:23:53;14.47;;;10.97;;
8397;SDS011;4236;54.504;9.588;2022-10-16T14:26:23;15.47;;;10.80;;
8397;SDS011;4236;54.504;9.588;2022-10-16T14:29:02;15.97;;;10.03;;
8397;SDS011;4236;54.504;9.588;2022-10-16T14:31:37;11.77;;;10.67;;
8397;SDS011;4236;54.504;9.588;2022-10-16T14:36:53;15.60;;;11.73;;
8397;SDS011;4236;54.504;9.588;2022-10-16T14:39:27;12.97;;;10.77;;
8397;SDS011;4236;54.504;9.588;2022-10-16T14:41:56;14.10;;;10.23;;
8397;SDS011;4236;54.504;9.588;2022-10-16T14:44:29;21.23;;;11.03;;
8397;SDS011;4236;54.504;9.588;2022-10-16T14:47:06;18.67;;;10.83;;
8397;SDS011;4236;54.504;9.588;2022-10-16T14:49:36;19.03;;;11.53;;
8397;SDS011;4236;54.504;9.588;2022-10-16T14:52:05;16.03;;;11.33;;
8397;SDS011;4236;54.504;9.588;2022-10-16T14:54:37;16.60;;;10.40;;
8397;SDS011;4236;54.504;9.588;2022-10-16T14:57:12;16.70;;;10.83;;
8397;SDS011;4236;54.504;9.588;2022-10-16T14:59:46;14.00;;;10.13;;
8397;SDS011;4236;54.504;9.588;2022-10-16T15:02:19;12.83;;;11.47;;
8397;SDS011;4236;54.504;9.588;2022-10-16T15:04:52;15.00;;;10.77;;
8397;SDS011;4236;54.504;9.588;2022-10-16T15:07:22;17.57;;;11.10;;
8397;SDS011;4236;54.504;9.588;2022-10-16T15:09:57;15.00;;;11.30;;
8397;SDS011;4236;54.504;9.588;2022-10-16T15:12:26;14.93;;;9.90;;
8397;SDS011;4236;54.504;9.588;2022-10-16T15:14:54;17.67;;;10.93;;
8397;SDS011;4236;54.504;9.588;2022-10-16T15:17:21;19.87;;;10.40;;
8397;SDS011;4236;54.504;9.588;2022-10-16T15:19:49;10.80;;;9.87;;
8397;SDS011;4236;54.504;9.588;2022-10-16T15:22:17;16.50;;;10.80;;